createdAt,value
2023-02-24T00:01:41.522Z,6.1
2023-02-24T00:06:47.717Z,6.1
2023-02-24T00:11:53.920Z,6.0
2023-02-24T00:17:00.320Z,6.0
2023-02-24T00:22:06.332Z,5.9
2023-02-24T00:27:12.652Z,5.8
2023-02-24T00:32:18.973Z,5.8
2023-02-24T00:37:24.993Z,5.7
2023-02-24T00:42:31.178Z,5.7
2023-02-24T00:47:37.385Z,5.7
2023-02-24T00:52:43.598Z,5.7
2023-02-24T00:57:49.800Z,5.7
2023-02-24T01:02:56.012Z,5.8
2023-02-24T01:08:01.250Z,5.8
2023-02-24T01:13:07.485Z,5.8
2023-02-24T01:18:12.680Z,5.9
2023-02-24T01:23:18.923Z,5.9
2023-02-24T01:28:25.097Z,5.9
2023-02-24T01:33:31.305Z,6.0
2023-02-24T01:38:37.824Z,6.0
2023-02-24T01:43:43.732Z,6.1
2023-02-24T01:48:49.929Z,6.1
2023-02-24T01:53:56.138Z,6.2
2023-02-24T01:59:02.349Z,6.2
2023-02-24T02:04:08.556Z,6.2
2023-02-24T02:09:14.771Z,6.2
2023-02-24T02:14:20.978Z,6.3
2023-02-24T02:19:27.175Z,6.3
2023-02-24T02:24:33.386Z,6.3
2023-02-24T02:29:39.600Z,6.3
2023-02-24T02:34:45.797Z,6.4
2023-02-24T02:39:52.014Z,6.4
2023-02-24T02:44:58.211Z,6.4
2023-02-24T02:50:04.420Z,6.4
2023-02-24T02:55:10.653Z,6.3
2023-02-24T03:00:16.838Z,6.3
2023-02-24T03:05:22.082Z,6.3
2023-02-24T03:10:28.283Z,6.2
2023-02-24T03:15:33.504Z,6.1
2023-02-24T03:20:39.716Z,6.0
2023-02-24T03:25:45.928Z,5.9
2023-02-24T03:30:52.197Z,5.8
2023-02-24T03:35:58.410Z,5.7
2023-02-24T03:41:04.550Z,5.6
2023-02-24T03:46:10.851Z,5.6
2023-02-24T03:51:16.979Z,5.5
2023-02-24T03:56:23.175Z,5.4
2023-02-24T04:01:29.392Z,5.4
2023-02-24T04:06:35.588Z,5.3
2023-02-24T04:11:41.789Z,5.2
2023-02-24T04:16:48.002Z,5.2
2023-02-24T04:21:54.207Z,5.1
2023-02-24T04:27:00.425Z,5.0
2023-02-24T04:32:06.856Z,5.0
2023-02-24T04:37:12.828Z,4.9
2023-02-24T04:42:19.043Z,4.9
2023-02-24T04:47:25.252Z,4.9
2023-02-24T04:52:31.454Z,4.8
2023-02-24T04:57:37.673Z,4.8
2023-02-24T05:02:42.902Z,4.8
2023-02-24T05:07:49.108Z,4.7
2023-02-24T05:12:54.341Z,4.8
2023-02-24T05:18:00.557Z,4.8
2023-02-24T05:23:06.753Z,4.8
2023-02-24T05:28:12.960Z,4.8
2023-02-24T05:33:19.177Z,4.9
2023-02-24T05:38:25.375Z,4.9
2023-02-24T05:43:31.600Z,4.9
2023-02-24T05:48:37.784Z,4.9
2023-02-24T05:53:43.993Z,4.9
2023-02-24T05:58:50.235Z,5.0
2023-02-24T06:03:56.411Z,5.0
2023-02-24T06:09:02.622Z,5.0
2023-02-24T06:14:08.831Z,5.0
2023-02-24T06:19:17.483Z,5.0
2023-02-24T06:24:21.241Z,5.1
2023-02-24T06:29:27.470Z,5.1
2023-02-24T06:34:33.669Z,5.1
2023-02-24T06:39:39.870Z,5.2
2023-02-24T06:44:46.079Z,5.2
2023-02-24T06:49:52.288Z,5.2
2023-02-24T06:54:58.500Z,5.2
2023-02-24T07:00:03.733Z,5.3
2023-02-24T07:05:09.937Z,5.3
2023-02-24T07:10:16.139Z,5.3
2023-02-24T07:15:22.355Z,5.3
2023-02-24T07:20:28.557Z,5.4
2023-02-24T07:25:34.769Z,5.4
2023-02-24T07:30:41.196Z,5.5
2023-02-24T07:35:47.341Z,5.5
2023-02-24T07:40:53.395Z,5.6
2023-02-24T07:45:59.849Z,5.6
2023-02-24T07:51:05.793Z,5.7
2023-02-24T07:56:12.018Z,5.7
2023-02-24T08:01:18.383Z,5.8
2023-02-24T08:06:24.440Z,5.9
2023-02-24T08:11:30.811Z,6.0
2023-02-24T08:16:36.835Z,6.1
2023-02-24T08:21:43.038Z,6.2
2023-02-24T08:26:49.257Z,6.2
2023-02-24T08:31:55.579Z,6.3
2023-02-24T08:37:01.681Z,6.4
2023-02-24T08:42:07.878Z,6.5
2023-02-24T08:47:13.114Z,6.6
2023-02-24T08:52:19.319Z,6.7
2023-02-24T08:57:24.575Z,6.8
2023-02-24T09:02:30.763Z,6.9
2023-02-24T09:07:36.993Z,6.9
2023-02-24T09:12:43.182Z,7.0
2023-02-24T09:17:49.393Z,7.0
2023-02-24T09:22:55.597Z,7.0
2023-02-24T09:28:01.809Z,7.1
2023-02-24T09:33:08.205Z,7.1
2023-02-24T09:38:14.220Z,7.2
2023-02-24T09:43:20.455Z,7.2
2023-02-24T09:48:26.641Z,7.3
2023-02-24T09:53:32.841Z,7.3
2023-02-24T09:58:44.005Z,7.3
2023-02-24T10:03:45.261Z,7.4
2023-02-24T10:08:51.801Z,7.4
2023-02-24T10:14:03.368Z,7.5
2023-02-24T10:19:03.888Z,7.5
2023-02-24T10:24:10.097Z,7.5
2023-02-24T10:29:18.533Z,7.5
2023-02-24T10:34:23.985Z,7.5
2023-02-24T10:39:27.731Z,7.5
2023-02-24T10:44:32.963Z,7.6
2023-02-24T10:49:39.183Z,7.7
2023-02-24T10:54:45.399Z,7.7
2023-02-24T10:59:50.641Z,7.8
2023-02-24T11:04:57.163Z,7.8
2023-02-24T11:10:03.041Z,7.9
2023-02-24T11:15:09.248Z,7.9
2023-02-24T11:20:15.445Z,7.9
2023-02-24T11:25:21.671Z,8.0
2023-02-24T11:30:28.276Z,8.0
2023-02-24T11:35:34.071Z,8.0
2023-02-24T11:40:40.311Z,8.1
2023-02-24T11:45:46.486Z,8.1
2023-02-24T11:50:52.700Z,8.1
2023-02-24T11:55:59.343Z,8.1
2023-02-24T12:01:05.168Z,8.1
2023-02-24T12:06:11.331Z,8.2
2023-02-24T12:11:17.522Z,8.2
2023-02-24T12:16:23.871Z,8.1
2023-02-24T12:21:29.928Z,8.2
2023-02-24T12:26:36.149Z,8.2
2023-02-24T12:31:42.534Z,8.2
2023-02-24T12:36:48.561Z,8.2
2023-02-24T12:41:54.767Z,8.2
2023-02-24T12:47:00.010Z,8.2
2023-02-24T12:52:06.361Z,8.2
2023-02-24T12:57:11.451Z,8.1
2023-02-24T13:02:17.716Z,8.1
2023-02-24T13:07:23.872Z,8.1
2023-02-24T13:12:30.258Z,8.2
2023-02-24T13:17:36.837Z,8.2
2023-02-24T13:22:42.506Z,8.2
2023-02-24T13:27:48.700Z,8.2
2023-02-24T13:32:55.099Z,8.3
2023-02-24T13:38:01.102Z,8.3
2023-02-24T13:43:07.320Z,8.4
2023-02-24T13:48:13.560Z,8.4
2023-02-24T13:53:19.820Z,8.5
2023-02-24T13:58:25.959Z,8.6
2023-02-24T14:03:32.162Z,8.7
2023-02-24T14:08:38.364Z,8.8
2023-02-24T14:13:44.563Z,8.9
2023-02-24T14:18:50.769Z,9.0
2023-02-24T14:23:57.136Z,9.2
2023-02-24T14:29:03.302Z,9.3
2023-02-24T14:34:09.420Z,9.4
2023-02-24T14:39:15.992Z,9.6
2023-02-24T14:44:20.835Z,9.7
2023-02-24T14:49:27.305Z,9.9
2023-02-24T14:54:32.439Z,9.9
2023-02-24T14:59:38.644Z,10.0
2023-02-24T15:04:44.720Z,10.0
2023-02-24T15:09:50.910Z,10.0
2023-02-24T15:14:57.113Z,10.2
2023-02-24T15:20:03.328Z,10.4
2023-02-24T15:25:09.531Z,10.4
2023-02-24T15:30:15.732Z,10.2
2023-02-24T15:35:21.938Z,10.1
2023-02-24T15:40:28.180Z,9.9
2023-02-24T15:45:34.355Z,9.8
2023-02-24T15:50:40.753Z,9.7
2023-02-24T15:55:46.780Z,9.7
2023-02-24T16:00:53.023Z,9.6
2023-02-24T16:05:59.195Z,9.6
2023-02-24T16:11:05.429Z,9.7
2023-02-24T16:16:11.667Z,9.7
2023-02-24T16:21:17.913Z,9.7
2023-02-24T16:26:24.256Z,9.7
2023-02-24T16:31:30.395Z,9.7
2023-02-24T16:36:36.440Z,9.7
2023-02-24T16:41:41.847Z,9.7
2023-02-24T16:46:47.901Z,9.7
2023-02-24T16:51:54.085Z,9.7
2023-02-24T16:57:00.295Z,9.6
2023-02-24T17:02:06.496Z,9.6
2023-02-24T17:07:12.712Z,9.5
2023-02-24T17:12:21.343Z,9.5
2023-02-24T17:17:25.153Z,9.4
2023-02-24T17:22:31.490Z,9.4
2023-02-24T17:27:37.550Z,9.4
2023-02-24T17:32:43.886Z,9.3
2023-02-24T17:37:49.961Z,9.3
2023-02-24T17:42:56.170Z,9.2
2023-02-24T17:48:02.385Z,9.2
2023-02-24T17:53:08.582Z,9.1
2023-02-24T17:58:14.789Z,9.0
2023-02-24T18:03:21.129Z,9.0
2023-02-24T18:08:27.198Z,8.9
2023-02-24T18:13:33.405Z,8.8
2023-02-24T18:18:39.637Z,8.7
2023-02-24T18:23:45.824Z,8.6
2023-02-24T18:28:51.065Z,8.6
2023-02-24T18:33:57.274Z,8.5
2023-02-24T18:39:03.489Z,8.5
2023-02-24T18:44:09.682Z,8.5
2023-02-24T18:49:15.892Z,8.5
2023-02-24T18:54:22.101Z,8.4
2023-02-24T18:59:28.302Z,8.4
2023-02-24T19:04:34.523Z,8.3
2023-02-24T19:09:41.752Z,8.3
2023-02-24T19:14:46.931Z,8.3
2023-02-24T19:19:53.136Z,8.2
2023-02-24T19:24:59.358Z,8.2
2023-02-24T19:30:05.558Z,8.2
2023-02-24T19:35:11.768Z,8.1
2023-02-24T19:40:17.978Z,8.0
2023-02-24T19:45:24.169Z,7.9
2023-02-24T19:50:30.388Z,7.9
2023-02-24T19:55:36.596Z,7.8
2023-02-24T20:00:42.806Z,7.7
2023-02-24T20:05:49.003Z,7.6
2023-02-24T20:10:55.209Z,7.5
2023-02-24T20:16:00.450Z,7.5
2023-02-24T20:21:06.664Z,7.4
2023-02-24T20:26:11.894Z,7.3
2023-02-24T20:31:18.211Z,7.2
2023-02-24T20:36:24.768Z,7.2
2023-02-24T20:41:30.523Z,7.1
2023-02-24T20:46:35.766Z,7.1
2023-02-24T20:51:41.971Z,7.0
2023-02-24T20:56:48.204Z,7.0
2023-02-24T21:01:54.436Z,7.0
2023-02-24T21:07:00.587Z,7.0
2023-02-24T21:12:06.786Z,7.0
2023-02-24T21:17:13.016Z,7.0
2023-02-24T21:22:19.206Z,7.0
2023-02-24T21:27:25.416Z,7.0
2023-02-24T21:32:31.677Z,7.0
2023-02-24T21:37:37.827Z,7.0
2023-02-24T21:42:44.050Z,7.0
2023-02-24T21:47:50.248Z,6.9
2023-02-24T21:52:56.448Z,6.9
2023-02-24T21:58:02.673Z,6.9
2023-02-24T22:03:08.909Z,6.8
2023-02-24T22:08:15.073Z,6.8
2023-02-24T22:13:21.324Z,6.8
2023-02-24T22:18:27.477Z,6.7
2023-02-24T22:23:33.694Z,6.7
2023-02-24T22:28:39.906Z,6.7
2023-02-24T22:33:45.158Z,6.7
2023-02-24T22:38:51.344Z,6.7
2023-02-24T22:43:56.574Z,6.7
2023-02-24T22:49:02.815Z,6.7
2023-02-24T22:54:09.008Z,6.7
2023-02-24T22:59:15.198Z,6.6
2023-02-24T23:04:21.409Z,6.6
2023-02-24T23:09:27.618Z,6.5
2023-02-24T23:14:33.871Z,6.5
2023-02-24T23:19:40.045Z,6.4
2023-02-24T23:24:46.246Z,6.4
2023-02-24T23:29:52.455Z,6.4
2023-02-24T23:34:58.648Z,6.3
2023-02-24T23:40:04.860Z,6.3
2023-02-24T23:45:11.073Z,6.2
2023-02-24T23:50:17.276Z,6.2
2023-02-24T23:55:23.493Z,6.2
